This demonstration page uses our WeatherBlox Daily Observations layout. Learn more.

41.55636, -103.73856

Hourly Observations for January 27, 2019

Temp ( °F °C ) Dew Point ( °F °C ) Humidity (%) Winds ( mph kmh ) Pressure ( in mb ) Visibility ( mi km ) Precip ( " mm )
12:58 am 00:58 Mostly Cloudy 32 -0.2 23 -5.1 70 70 WNW 28 44 30.22 1023 10 16.0934 N/A
1:58 am 01:58 Mostly Cloudy 33 0.4 23 -5.1 67 67 WNW 30 48 30.25 1025 10 16.0934 N/A
2:58 am 02:58 Mostly Cloudy 31 -0.3 22 -5.7 67 67 WNW 23 37 30.23 1024 10 16.0934 N/A
4:58 am 04:58 Mostly Cloudy 33 0.4 22 -5.8 64 64 WNW 28 44 30.18 1022 10 16.0934 N/A
5:58 am 05:58 Mostly Cloudy 32 0.1 21 -6.1 63 63 WNW 31 50 30.15 1021 10 16.0934 N/A
6:58 am 06:58 Partly Cloudy 32 -0.1 21 -6.2 64 64 WNW 33 54 30.14 1021 10 16.0934 N/A
7:58 am 07:58 Clear 33 0.3 22 -5.8 64 64 WNW 33 54 30.13 1020 10 16.0934 N/A
8:58 am 08:58 Mostly Cloudy 33 0.7 23 -5.2 65 65 WNW 30 48 30.11 1020 10 16.0934 N/A
9:58 am 09:58 Mostly Cloudy 35 1.4 24 -4.6 65 65 WNW 29 46 30.1 1019 10 16.0934 N/A
10:58 am 10:58 Cloudy 35 1.8 24 -4.2 65 65 WNW 29 46 30.06 1018 10 16.0934 N/A
11:58 am 11:58 Mostly Cloudy 35 1.9 25 -4.1 65 65 WNW 33 54 30.05 1018 10 16.0934 N/A
12:58 pm 12:58 Partly Cloudy 35 1.5 24 -4.5 65 65 W 25 41 30.03 1017 10 16.0934 N/A
1:58 pm 13:58 Clear 33 0.4 24 -4.7 69 69 W 22 35 30.04 1017 10 16.0934 N/A
2:58 pm 14:58 Sunny 35 1.6 24 -4.6 64 64 WNW 29 46 30.01 1016 10 16.0934 N/A
3:58 pm 15:58 Sunny 37 2.8 25 -4 61 61 W 23 37 29.97 1015 10 16.0934 N/A
4:58 pm 16:58 Sunny 39 3.8 25 -4.1 57 57 W 23 37 29.96 1015 10 16.0934 N/A
5:58 pm 17:58 Sunny 42 5.3 26 -3.5 53 53 W 24 39 29.93 1014 10 16.0934 N/A
6:58 pm 18:58 Partly Cloudy 43 6.3 27 -2.7 53 53 W 30 48 29.86 1011 10 16.0934 N/A
7:58 pm 19:58 Mostly Sunny 44 6.9 27 -2.8 50 50 WNW 33 54 29.8 1009 10 16.0934 N/A
8:58 pm 20:58 Sunny 47 8.4 26 -3.1 45 45 WNW 33 54 29.74 1007 10 16.0934 N/A
9:58 pm 21:58 Mostly Cloudy 46 7.8 27 -2.7 48 48 W 29 46 29.7 1006 10 16.0934 N/A
10:58 pm 22:58 Mostly Cloudy 45 7.1 25 -4 45 45 WNW 32 52 29.69 1006 10 16.0934 N/A

Powered by AerisWeather